createdAt,value
2022-10-05T00:01:28.032Z,99907.25
2022-10-05T00:03:54.455Z,99910.34
2022-10-05T00:06:20.781Z,99900.97
2022-10-05T00:08:47.224Z,99905.56
2022-10-05T00:11:13.701Z,99905.75
2022-10-05T00:13:42.152Z,99901.41
2022-10-05T00:16:08.936Z,99895.97
2022-10-05T00:18:35.296Z,99901.09
2022-10-05T00:21:01.607Z,99898.91
2022-10-05T00:23:28.123Z,99894.47
2022-10-05T00:25:54.539Z,99888.91
2022-10-05T00:28:20.949Z,99882.69
2022-10-05T00:30:47.575Z,99885.22
2022-10-05T00:33:13.898Z,99882.13
2022-10-05T00:35:40.240Z,99888.13
2022-10-05T00:38:07.226Z,99889.91
2022-10-05T00:40:33.556Z,99889.03
2022-10-05T00:42:59.943Z,99881.97
2022-10-05T00:45:26.397Z,99888.38
2022-10-05T00:47:53.133Z,99891.88
2022-10-05T00:50:19.530Z,99888.47
2022-10-05T00:52:46.079Z,99885.66
2022-10-05T00:55:12.444Z,99881.03
2022-10-05T00:57:38.888Z,99883.50
2022-10-05T01:00:05.445Z,99879.13
2022-10-05T01:02:36.495Z,99874.97
2022-10-05T01:07:38.711Z,99876.69
2022-10-05T01:10:05.097Z,99871.56
2022-10-05T01:12:31.709Z,99876.78
2022-10-05T01:14:58.290Z,99878.41
2022-10-05T01:17:24.616Z,99874.78
2022-10-05T01:19:51.027Z,99878.22
2022-10-05T01:22:17.722Z,99884.41
2022-10-05T01:24:44.086Z,99883.69
2022-10-05T01:27:10.512Z,99876.44
2022-10-05T01:29:37.067Z,99873.72
2022-10-05T01:32:05.914Z,99872.72
2022-10-05T01:34:32.452Z,99870.84
2022-10-05T01:36:59.073Z,99873.50
2022-10-05T01:39:25.616Z,99858.50
2022-10-05T01:41:52.259Z,99851.59
2022-10-05T01:44:18.659Z,99842.91
2022-10-05T01:46:45.404Z,99848.19
2022-10-05T01:49:13.469Z,99853.53
2022-10-05T01:51:40.020Z,99847.72
2022-10-05T01:54:06.415Z,99852.06
2022-10-05T01:56:32.977Z,99845.22
2022-10-05T01:58:59.849Z,99846.22
2022-10-05T02:01:26.358Z,99834.81
2022-10-05T02:03:52.778Z,99837.44
2022-10-05T02:06:19.252Z,99833.22
2022-10-05T02:08:45.725Z,99829.16
2022-10-05T02:11:12.068Z,99826.38
2022-10-05T02:13:38.486Z,99827.31
2022-10-05T02:16:04.959Z,99832.13
2022-10-05T02:18:31.409Z,99834.28
2022-10-05T02:20:57.936Z,99827.16
2022-10-05T02:23:24.379Z,99828.16
2022-10-05T02:25:50.765Z,99823.09
2022-10-05T02:28:17.370Z,99823.19
2022-10-05T02:30:43.804Z,99829.44
2022-10-05T02:33:10.204Z,99823.72
2022-10-05T02:35:36.568Z,99826.09
2022-10-05T02:38:02.988Z,99823.66
2022-10-05T02:40:29.386Z,99818.56
2022-10-05T02:42:55.912Z,99813.03
2022-10-05T02:45:22.385Z,99813.97
2022-10-05T02:47:48.757Z,99804.06
2022-10-05T02:50:15.204Z,99802.75
2022-10-05T02:52:41.569Z,99790.09
2022-10-05T02:55:08.245Z,99790.00
2022-10-05T02:57:34.691Z,99801.50
2022-10-05T03:00:01.123Z,99793.56
2022-10-05T03:02:27.763Z,99793.72
2022-10-05T03:04:54.370Z,99796.81
2022-10-05T03:07:20.916Z,99792.31
2022-10-05T03:09:47.460Z,99790.50
2022-10-05T03:12:13.886Z,99794.13
2022-10-05T03:14:40.272Z,99798.13
2022-10-05T03:17:06.617Z,99797.69
2022-10-05T03:19:33.143Z,99795.41
2022-10-05T03:21:59.706Z,99786.34
2022-10-05T03:24:26.090Z,99779.84
2022-10-05T03:26:52.451Z,99777.50
2022-10-05T03:29:18.775Z,99783.63
2022-10-05T03:31:45.348Z,99784.28
2022-10-05T03:34:11.867Z,99780.31
2022-10-05T03:36:38.411Z,99782.31
2022-10-05T03:39:04.790Z,99769.06
2022-10-05T03:41:31.250Z,99776.97
2022-10-05T03:43:57.575Z,99773.19
2022-10-05T03:46:24.005Z,99760.81
2022-10-05T03:48:50.683Z,99771.00
2022-10-05T03:51:17.088Z,99777.25
2022-10-05T03:53:43.420Z,99778.03
2022-10-05T03:56:09.750Z,99772.69
2022-10-05T03:58:36.099Z,99765.78
2022-10-05T04:01:02.457Z,99762.09
2022-10-05T04:03:28.888Z,99761.88
2022-10-05T04:05:55.281Z,99761.75
2022-10-05T04:08:21.692Z,99763.78
2022-10-05T04:10:48.108Z,99752.31
2022-10-05T04:13:14.640Z,99769.06
2022-10-05T04:15:41.157Z,99779.41
2022-10-05T04:18:08.317Z,99777.69
2022-10-05T04:20:34.675Z,99778.09
2022-10-05T04:23:01.102Z,99778.09
2022-10-05T04:25:27.739Z,99770.19
2022-10-05T04:27:54.230Z,99763.59
2022-10-05T04:30:20.573Z,99770.56
2022-10-05T04:32:47.154Z,99778.47
2022-10-05T04:35:13.505Z,99774.53
2022-10-05T04:37:43.221Z,99775.47
2022-10-05T04:40:15.339Z,99766.91
2022-10-05T04:42:41.688Z,99779.09
2022-10-05T04:45:08.058Z,99788.75
2022-10-05T04:47:34.498Z,99781.50
2022-10-05T04:50:00.833Z,99781.66
2022-10-05T04:52:27.631Z,99776.53
2022-10-05T04:54:54.302Z,99774.97
2022-10-05T04:57:20.750Z,99781.00
2022-10-05T04:59:47.117Z,99788.91
2022-10-05T05:02:13.684Z,99785.88
2022-10-05T05:04:40.036Z,99797.06
2022-10-05T05:07:06.625Z,99793.78
2022-10-05T05:09:33.357Z,99804.44
2022-10-05T05:11:59.949Z,99802.28
2022-10-05T05:14:26.525Z,99798.97
2022-10-05T05:16:53.101Z,99803.78
2022-10-05T05:19:19.444Z,99808.91
2022-10-05T05:21:45.926Z,99806.94
2022-10-05T05:24:12.656Z,99801.16
2022-10-05T05:26:39.236Z,99806.81
2022-10-05T05:29:05.823Z,99810.88
2022-10-05T05:31:32.553Z,99807.31
2022-10-05T05:33:58.949Z,99811.44
2022-10-05T05:36:25.337Z,99812.06
2022-10-05T05:38:52.406Z,99811.88
2022-10-05T05:41:18.970Z,99824.13
2022-10-05T05:43:45.446Z,99821.56
2022-10-05T05:46:11.830Z,99819.50
2022-10-05T05:48:38.456Z,99816.50
2022-10-05T05:51:04.899Z,99812.22
2022-10-05T05:53:31.465Z,99816.50
2022-10-05T05:55:58.103Z,99814.88
2022-10-05T05:58:24.671Z,99829.75
2022-10-05T06:00:51.309Z,99830.53
2022-10-05T06:03:17.725Z,99827.66
2022-10-05T06:05:44.172Z,99836.28
2022-10-05T06:08:10.580Z,99833.66
2022-10-05T06:10:36.987Z,99835.34
2022-10-05T06:13:05.391Z,99830.94
2022-10-05T06:15:31.892Z,99843.13
2022-10-05T06:17:58.261Z,99855.03
2022-10-05T06:20:24.628Z,99845.97
2022-10-05T06:22:51.167Z,99852.19
2022-10-05T06:25:17.600Z,99864.16
2022-10-05T06:27:43.928Z,99858.66
2022-10-05T06:30:10.337Z,99866.66
2022-10-05T06:32:36.771Z,99866.88
2022-10-05T06:35:03.162Z,99860.50
2022-10-05T06:37:29.648Z,99855.94
2022-10-05T06:40:00.783Z,99857.22
2022-10-05T06:42:29.742Z,99844.91
2022-10-05T06:44:56.359Z,99843.31
2022-10-05T06:47:22.737Z,99844.53
2022-10-05T06:49:49.151Z,99861.09
2022-10-05T06:52:16.141Z,99855.38
2022-10-05T06:54:42.551Z,99849.94
2022-10-05T06:57:08.958Z,99859.28
2022-10-05T06:59:35.419Z,99858.09
2022-10-05T07:02:01.905Z,99862.06
2022-10-05T07:04:29.217Z,99870.47
2022-10-05T07:06:57.768Z,99868.75
2022-10-05T07:09:24.158Z,99859.91
2022-10-05T07:11:56.376Z,99853.78
2022-10-05T07:14:25.085Z,99858.06
2022-10-05T07:16:51.461Z,99859.84
2022-10-05T07:19:17.902Z,99862.22
2022-10-05T07:21:44.997Z,99859.97
2022-10-05T07:24:11.795Z,99865.78
2022-10-05T07:26:38.275Z,99867.97
2022-10-05T07:29:04.674Z,99870.75
2022-10-05T07:31:31.033Z,99872.88
2022-10-05T07:33:57.427Z,99885.63
2022-10-05T07:36:23.979Z,99886.63
2022-10-05T07:38:50.341Z,99886.59
2022-10-05T07:41:16.752Z,99890.53
2022-10-05T07:46:30.445Z,99888.13
2022-10-05T07:48:57.199Z,99879.47
2022-10-05T07:51:23.720Z,99876.47
2022-10-05T07:53:50.098Z,99877.72
2022-10-05T07:56:16.658Z,99884.16
2022-10-05T07:58:43.015Z,99878.09
2022-10-05T08:01:09.545Z,99879.78
2022-10-05T08:03:36.405Z,99880.81
2022-10-05T08:06:02.893Z,99873.41
2022-10-05T08:08:29.395Z,99878.66
2022-10-05T08:10:56.110Z,99868.06
2022-10-05T08:13:22.805Z,99866.41
2022-10-05T08:15:49.213Z,99865.19
2022-10-05T08:18:16.202Z,99866.91
2022-10-05T08:20:42.609Z,99870.84
2022-10-05T08:23:09.187Z,99862.03
2022-10-05T08:25:35.910Z,99858.03
2022-10-05T08:28:02.331Z,99863.09
2022-10-05T08:30:28.729Z,99855.06
2022-10-05T08:32:55.358Z,99855.25
2022-10-05T08:35:21.830Z,99852.41
2022-10-05T08:37:48.326Z,99851.28
2022-10-05T08:40:14.722Z,99849.34
2022-10-05T08:42:41.173Z,99855.16
2022-10-05T08:45:07.716Z,99847.78
2022-10-05T08:47:34.223Z,99845.75
2022-10-05T08:50:00.750Z,99841.72
2022-10-05T08:52:27.103Z,99834.50
2022-10-05T08:54:53.677Z,99832.81
2022-10-05T08:57:20.272Z,99827.53
2022-10-05T08:59:46.775Z,99830.38
2022-10-05T09:02:13.485Z,99836.63
2022-10-05T09:04:39.889Z,99829.59
2022-10-05T09:07:06.430Z,99827.91
2022-10-05T09:09:32.971Z,99825.72
2022-10-05T09:11:59.309Z,99825.81
2022-10-05T09:14:25.650Z,99826.47
2022-10-05T09:16:52.214Z,99824.91
2022-10-05T09:19:18.684Z,99822.06
2022-10-05T09:21:45.515Z,99821.28
2022-10-05T09:24:12.276Z,99829.22
2022-10-05T09:26:38.895Z,99830.75
2022-10-05T09:29:05.208Z,99837.56
2022-10-05T09:31:32.202Z,99834.34
2022-10-05T09:33:58.626Z,99829.34
2022-10-05T09:36:25.032Z,99828.47
2022-10-05T09:38:52.173Z,99833.78
2022-10-05T09:41:18.562Z,99837.56
2022-10-05T09:43:44.946Z,99838.03
2022-10-05T09:46:11.694Z,99835.88
2022-10-05T09:48:38.193Z,99836.34
2022-10-05T09:51:04.593Z,99827.59
2022-10-05T09:53:31.182Z,99829.09
2022-10-05T09:55:57.627Z,99833.44
2022-10-05T09:58:24.316Z,99831.00
2022-10-05T10:00:58.835Z,99836.72
2022-10-05T10:03:35.747Z,99841.31
2022-10-05T10:06:02.365Z,99840.84
2022-10-05T10:08:29.353Z,99834.03
2022-10-05T10:10:55.827Z,99830.41
2022-10-05T10:13:22.550Z,99821.06
2022-10-05T10:15:49.331Z,99820.16
2022-10-05T10:18:15.780Z,99815.13
2022-10-05T10:20:42.260Z,99812.94
2022-10-05T10:23:08.725Z,99819.47
2022-10-05T10:25:35.149Z,99818.25
2022-10-05T10:28:01.770Z,99826.22
2022-10-05T10:30:28.909Z,99822.41
2022-10-05T10:32:56.463Z,99814.53
2022-10-05T10:35:22.967Z,99823.81
2022-10-05T10:37:49.354Z,99815.41
2022-10-05T10:40:15.812Z,99820.53
2022-10-05T10:42:42.408Z,99816.50
2022-10-05T10:45:08.783Z,99810.34
2022-10-05T10:47:35.113Z,99813.94
2022-10-05T10:50:01.676Z,99808.22
2022-10-05T10:52:28.138Z,99814.81
2022-10-05T10:54:54.532Z,99813.53
2022-10-05T10:57:21.058Z,99805.88
2022-10-05T10:59:47.428Z,99799.38
2022-10-05T11:02:13.834Z,99807.59
2022-10-05T11:04:40.424Z,99799.28
2022-10-05T11:07:06.777Z,99798.13
2022-10-05T11:09:33.178Z,99783.31
2022-10-05T11:11:59.668Z,99788.00
2022-10-05T11:14:26.085Z,99775.44
2022-10-05T11:16:52.425Z,99783.88
2022-10-05T11:19:18.751Z,99784.81
2022-10-05T11:21:45.100Z,99776.72
2022-10-05T11:24:11.448Z,99781.19
2022-10-05T11:26:37.902Z,99780.97
2022-10-05T11:29:04.217Z,99777.56
2022-10-05T11:31:30.709Z,99772.91
2022-10-05T11:33:57.329Z,99764.13
2022-10-05T11:36:23.691Z,99759.22
2022-10-05T11:38:50.081Z,99758.03
2022-10-05T11:41:16.615Z,99758.03
2022-10-05T11:43:43.002Z,99765.38
2022-10-05T11:46:09.369Z,99754.19
2022-10-05T11:48:36.000Z,99755.13
2022-10-05T11:51:02.363Z,99748.41
2022-10-05T11:53:28.684Z,99751.81
2022-10-05T11:55:55.217Z,99747.19
2022-10-05T11:58:21.605Z,99744.41
2022-10-05T12:00:47.948Z,99747.56
2022-10-05T12:03:14.481Z,99743.25
2022-10-05T12:05:40.974Z,99743.00
2022-10-05T12:08:07.289Z,99753.16
2022-10-05T12:10:33.906Z,99748.19
2022-10-05T12:13:00.741Z,99740.31
2022-10-05T12:15:27.507Z,99739.22
2022-10-05T12:17:53.929Z,99739.69
2022-10-05T12:20:20.269Z,99743.09
2022-10-05T12:22:46.607Z,99737.53
2022-10-05T12:25:13.107Z,99733.88
2022-10-05T12:27:39.473Z,99733.78
2022-10-05T12:30:05.776Z,99731.47
2022-10-05T12:32:32.196Z,99731.22
2022-10-05T12:35:01.870Z,99729.16
2022-10-05T12:37:28.449Z,99726.16
2022-10-05T12:39:54.999Z,99718.03
2022-10-05T12:42:21.338Z,99729.31
2022-10-05T12:44:47.734Z,99728.47
2022-10-05T12:47:14.228Z,99722.06
2022-10-05T12:49:40.701Z,99719.59
2022-10-05T12:52:07.065Z,99720.56
2022-10-05T12:54:33.598Z,99717.94
2022-10-05T12:56:59.950Z,99715.78
2022-10-05T12:59:26.373Z,99716.41
2022-10-05T13:01:53.061Z,99719.19
2022-10-05T13:04:19.538Z,99710.22
2022-10-05T13:06:45.885Z,99708.03
2022-10-05T13:09:12.647Z,99711.19
2022-10-05T13:11:39.050Z,99706.09
2022-10-05T13:14:05.869Z,99702.38
2022-10-05T13:16:32.953Z,99710.84
2022-10-05T13:18:59.521Z,99708.03
2022-10-05T13:21:26.808Z,99712.69
2022-10-05T13:23:57.230Z,99702.22
2022-10-05T13:26:24.022Z,99699.91
2022-10-05T13:28:50.638Z,99702.22
2022-10-05T13:31:17.063Z,99702.63
2022-10-05T13:33:43.663Z,99704.53
2022-10-05T13:36:10.358Z,99707.34
2022-10-05T13:38:37.321Z,99703.56
2022-10-05T13:41:03.900Z,99698.38
2022-10-05T13:43:30.412Z,99700.41
2022-10-05T13:45:57.437Z,99699.34
2022-10-05T13:48:23.871Z,99699.56
2022-10-05T13:50:50.405Z,99707.09
2022-10-05T13:53:17.256Z,99705.84
2022-10-05T13:55:43.606Z,99700.06
2022-10-05T13:58:10.103Z,99697.38
2022-10-05T14:00:36.634Z,99695.34
2022-10-05T14:03:03.227Z,99696.66
2022-10-05T14:05:29.627Z,99695.78
2022-10-05T14:07:56.291Z,99692.06
2022-10-05T14:10:22.759Z,99685.25
2022-10-05T14:12:49.132Z,99689.16
2022-10-05T14:15:15.861Z,99688.53
2022-10-05T14:17:42.269Z,99691.81
2022-10-05T14:20:08.907Z,99693.50
2022-10-05T14:22:35.491Z,99686.97
2022-10-05T14:25:02.193Z,99690.97
2022-10-05T14:27:28.611Z,99685.25
2022-10-05T14:29:55.302Z,99683.19
2022-10-05T14:32:21.640Z,99688.16
2022-10-05T14:34:48.087Z,99684.28
2022-10-05T14:37:14.773Z,99682.22
2022-10-05T14:39:41.448Z,99679.78
2022-10-05T14:42:08.202Z,99684.03
2022-10-05T14:44:34.728Z,99679.94
2022-10-05T14:47:01.187Z,99682.97
2022-10-05T14:49:27.660Z,99685.03
2022-10-05T14:51:54.019Z,99676.28
2022-10-05T14:54:20.453Z,99667.81
2022-10-05T14:56:46.981Z,99670.34
2022-10-05T14:59:13.558Z,99666.81
2022-10-05T15:01:39.960Z,99662.81
2022-10-05T15:04:06.438Z,99669.25
2022-10-05T15:06:33.295Z,99668.75
2022-10-05T15:08:59.746Z,99660.88
2022-10-05T15:11:26.198Z,99668.72
2022-10-05T15:13:52.725Z,99662.53
2022-10-05T15:16:19.557Z,99652.84
2022-10-05T15:18:46.388Z,99661.72
2022-10-05T15:23:39.135Z,99660.50
2022-10-05T15:26:05.484Z,99659.31
2022-10-05T15:28:31.930Z,99646.69
2022-10-05T15:30:58.379Z,99656.63
2022-10-05T15:33:24.859Z,99655.44
2022-10-05T15:35:51.570Z,99659.78
2022-10-05T15:38:18.041Z,99658.41
2022-10-05T15:40:44.505Z,99656.38
2022-10-05T15:43:10.978Z,99655.47
2022-10-05T15:45:37.767Z,99660.72
2022-10-05T15:48:04.171Z,99656.56
2022-10-05T15:50:30.630Z,99662.88
2022-10-05T15:52:57.008Z,99663.09
2022-10-05T15:55:23.392Z,99661.50
2022-10-05T15:57:49.907Z,99655.31
2022-10-05T16:00:16.331Z,99663.78
2022-10-05T16:02:43.032Z,99656.50
2022-10-05T16:05:09.606Z,99660.84
2022-10-05T16:07:35.983Z,99666.91
2022-10-05T16:10:02.314Z,99656.38
2022-10-05T16:12:28.797Z,99665.47
2022-10-05T16:14:55.321Z,99664.47
2022-10-05T16:17:22.021Z,99664.72
2022-10-05T16:19:48.631Z,99665.81
2022-10-05T16:22:15.099Z,99668.22
2022-10-05T16:24:41.473Z,99668.81
2022-10-05T16:27:08.076Z,99667.84
2022-10-05T16:29:34.540Z,99665.28
2022-10-05T16:32:00.925Z,99669.03
2022-10-05T16:34:27.651Z,99664.34
2022-10-05T16:36:54.069Z,99674.19
2022-10-05T16:39:23.336Z,99669.50
2022-10-05T16:41:49.990Z,99674.63
2022-10-05T16:44:16.749Z,99681.03
2022-10-05T16:46:43.302Z,99682.72
2022-10-05T16:49:10.079Z,99680.66
2022-10-05T16:51:36.568Z,99688.44
2022-10-05T16:54:02.965Z,99682.28
2022-10-05T16:56:29.652Z,99685.13
2022-10-05T16:58:56.033Z,99686.88
2022-10-05T17:01:22.382Z,99692.38
2022-10-05T17:03:49.009Z,99694.09
2022-10-05T17:06:15.369Z,99696.66
2022-10-05T17:08:42.346Z,99694.94
2022-10-05T17:11:10.531Z,99699.00
2022-10-05T17:13:39.898Z,99692.19
2022-10-05T17:16:08.446Z,99697.19
2022-10-05T17:18:35.366Z,99705.28
2022-10-05T17:21:01.827Z,99700.47
2022-10-05T17:23:28.237Z,99704.66
2022-10-05T17:25:54.859Z,99705.19
2022-10-05T17:28:21.337Z,99705.16
2022-10-05T17:30:47.885Z,99710.63
2022-10-05T17:33:14.805Z,99706.34
2022-10-05T17:35:41.190Z,99708.16
2022-10-05T17:38:07.577Z,99715.59
2022-10-05T17:40:34.341Z,99715.31
2022-10-05T17:43:00.871Z,99711.81
2022-10-05T17:45:27.265Z,99711.81
2022-10-05T17:47:53.763Z,99712.44
2022-10-05T17:50:20.209Z,99706.81
2022-10-05T17:52:46.619Z,99720.97
2022-10-05T17:55:13.052Z,99717.53
2022-10-05T17:57:39.541Z,99710.44
2022-10-05T18:00:05.924Z,99715.84
2022-10-05T18:02:36.292Z,99720.53
2022-10-05T18:05:03.580Z,99713.72
2022-10-05T18:07:30.029Z,99713.28
2022-10-05T18:09:57.578Z,99709.88
2022-10-05T18:12:24.114Z,99712.88
2022-10-05T18:14:50.481Z,99720.75
2022-10-05T18:17:17.151Z,99717.34
2022-10-05T18:19:43.699Z,99717.44
2022-10-05T18:22:10.280Z,99718.41
2022-10-05T18:24:37.010Z,99724.25
2022-10-05T18:27:03.679Z,99724.16
2022-10-05T18:29:30.178Z,99718.81
2022-10-05T18:31:56.619Z,99717.75
2022-10-05T18:34:23.049Z,99724.25
2022-10-05T18:36:49.689Z,99717.13
2022-10-05T18:39:16.544Z,99716.28
2022-10-05T18:41:43.513Z,99717.56
2022-10-05T18:44:10.062Z,99721.59
2022-10-05T18:46:37.065Z,99712.25
2022-10-05T18:49:04.046Z,99719.06
2022-10-05T18:51:30.828Z,99719.88
2022-10-05T18:53:58.069Z,99717.00
2022-10-05T18:56:24.657Z,99722.66
2022-10-05T18:58:56.547Z,99717.00
2022-10-05T19:01:24.092Z,99716.41
2022-10-05T19:03:51.117Z,99717.78
2022-10-05T19:06:18.016Z,99717.56
2022-10-05T19:08:45.071Z,99725.44
2022-10-05T19:11:12.603Z,99720.53
2022-10-05T19:13:39.395Z,99715.22
2022-10-05T19:16:06.319Z,99721.59
2022-10-05T19:18:33.055Z,99721.28
2022-10-05T19:21:00.199Z,99722.13
2022-10-05T19:23:26.991Z,99720.09
2022-10-05T19:25:53.939Z,99728.53
2022-10-05T19:28:20.553Z,99736.09
2022-10-05T19:30:47.386Z,99739.91
2022-10-05T19:33:13.904Z,99734.47
2022-10-05T19:35:40.277Z,99739.16
2022-10-05T19:38:09.613Z,99744.16
2022-10-05T19:40:38.253Z,99748.84
2022-10-05T19:43:04.653Z,99752.66
2022-10-05T19:45:31.126Z,99751.59
2022-10-05T19:47:57.532Z,99752.66
2022-10-05T19:50:23.929Z,99758.06
2022-10-05T19:52:50.476Z,99751.06
2022-10-05T19:55:17.192Z,99757.84
2022-10-05T19:57:43.663Z,99758.72
2022-10-05T20:00:10.650Z,99757.66
2022-10-05T20:02:41.782Z,99751.69
2022-10-05T20:05:08.862Z,99755.63
2022-10-05T20:07:35.857Z,99765.31
2022-10-05T20:10:02.334Z,99769.44
2022-10-05T20:12:28.899Z,99772.53
2022-10-05T20:14:59.225Z,99769.44
2022-10-05T20:17:26.084Z,99779.88
2022-10-05T20:19:52.573Z,99778.56
2022-10-05T20:22:19.088Z,99783.88
2022-10-05T20:24:45.579Z,99783.47
2022-10-05T20:27:15.712Z,99779.44
2022-10-05T20:29:42.386Z,99785.50
2022-10-05T20:32:08.877Z,99790.50
2022-10-05T20:34:36.735Z,99792.63
2022-10-05T20:37:03.254Z,99793.91
2022-10-05T20:39:29.627Z,99793.38
2022-10-05T20:41:56.118Z,99792.50
2022-10-05T20:44:22.681Z,99792.19
2022-10-05T20:46:49.148Z,99792.59
2022-10-05T20:49:15.459Z,99796.88
2022-10-05T20:51:41.884Z,99804.41
2022-10-05T20:54:08.332Z,99804.53
2022-10-05T20:56:34.758Z,99807.53
2022-10-05T20:59:01.249Z,99807.31
2022-10-05T21:01:27.695Z,99804.84
2022-10-05T21:03:54.111Z,99810.34
2022-10-05T21:06:20.523Z,99814.72
2022-10-05T21:08:46.942Z,99808.44
2022-10-05T21:11:13.563Z,99814.31
2022-10-05T21:13:40.476Z,99808.25
2022-10-05T21:16:06.904Z,99808.66
2022-10-05T21:18:33.307Z,99817.38
2022-10-05T21:21:02.224Z,99813.00
2022-10-05T21:23:28.904Z,99818.53
2022-10-05T21:25:55.276Z,99812.84
2022-10-05T21:28:22.728Z,99813.59
2022-10-05T21:30:49.386Z,99819.75
2022-10-05T21:33:15.916Z,99817.28
2022-10-05T21:35:42.645Z,99814.94
2022-10-05T21:38:09.434Z,99811.94
2022-10-05T21:40:35.828Z,99814.25
2022-10-05T21:43:02.279Z,99826.22
2022-10-05T21:45:28.987Z,99814.84
2022-10-05T21:47:55.615Z,99810.09
2022-10-05T21:50:22.022Z,99816.91
2022-10-05T21:52:48.369Z,99820.72
2022-10-05T21:55:14.772Z,99813.31
2022-10-05T21:57:41.416Z,99819.09
2022-10-05T22:00:07.954Z,99810.59
2022-10-05T22:02:34.299Z,99808.78
2022-10-05T22:05:00.842Z,99807.84
2022-10-05T22:07:27.328Z,99805.19
2022-10-05T22:09:53.735Z,99806.50
2022-10-05T22:12:20.384Z,99807.34
2022-10-05T22:14:47.163Z,99806.78
2022-10-05T22:17:13.729Z,99813.78
2022-10-05T22:19:40.214Z,99813.69
2022-10-05T22:22:11.145Z,99811.22
2022-10-05T22:24:38.909Z,99820.03
2022-10-05T22:27:05.358Z,99821.81
2022-10-05T22:29:31.824Z,99819.84
2022-10-05T22:31:58.273Z,99808.97
2022-10-05T22:34:24.830Z,99814.94
2022-10-05T22:36:51.239Z,99819.47
2022-10-05T22:39:17.577Z,99821.47
2022-10-05T22:41:43.997Z,99817.09
2022-10-05T22:44:10.346Z,99820.97
2022-10-05T22:46:36.663Z,99819.84
2022-10-05T22:49:03.426Z,99825.69
2022-10-05T22:51:29.929Z,99820.13
2022-10-05T22:53:56.270Z,99823.34
2022-10-05T22:56:22.809Z,99826.75
2022-10-05T22:58:49.167Z,99834.13
2022-10-05T23:01:15.578Z,99829.97
2022-10-05T23:03:42.019Z,99834.13
2022-10-05T23:06:08.419Z,99827.25
2022-10-05T23:08:34.957Z,99831.72
2022-10-05T23:11:01.516Z,99834.78
2022-10-05T23:13:27.862Z,99831.28
2022-10-05T23:15:54.488Z,99832.81
2022-10-05T23:18:20.968Z,99832.81
2022-10-05T23:20:47.351Z,99833.38
2022-10-05T23:23:13.799Z,99838.88
2022-10-05T23:25:40.261Z,99839.25
2022-10-05T23:28:06.811Z,99833.44
2022-10-05T23:30:33.269Z,99829.00
2022-10-05T23:32:59.801Z,99831.31
2022-10-05T23:35:26.142Z,99842.94
2022-10-05T23:37:52.451Z,99837.66
2022-10-05T23:40:18.821Z,99839.66
2022-10-05T23:42:45.161Z,99838.81
2022-10-05T23:45:11.665Z,99842.13
2022-10-05T23:47:38.247Z,99837.75
2022-10-05T23:50:04.637Z,99845.13
2022-10-05T23:52:31.079Z,99851.75
2022-10-05T23:54:57.752Z,99861.34
2022-10-05T23:57:27.240Z,99879.88
2022-10-05T23:59:53.663Z,99873.91
